KLVK

Livermore Municipal Airport

Livermore, California, USA
METAR KLVK 210653Z AUTO 22012G17KT 10SM OVC018 12/10 A2990 RMK AO2 SLP124 T01170100 $
Observed Flight Rules
May-21 @ 06:53 UTC (21 minutes ago) Marginal Visual Flight Rules
Wind Visibility Clouds
220° at 12 knots
 Gusting to 17 knots
10 miles
  • Overcast at 1,800' AGL
Temperatures Readings
Current 12°C / 54°F
Dewpoint 10°C / 50°F
Humidity 88%
Altimeter 29.9" Hg
Pressure 1012.4 hPa
Elevation 117
METAR KLVK 210653Z AUTO 22012G17KT 10SM OVC018 12/10 A2990 RMK AO2 SLP124 T01170100 $
Observed Flight Rules
May-21 @ 06:53 UTC
(21 minutes ago)
MVFR
Wind Visibility
220° at 12 knots
 Gusting to 17 knots
10 miles
Clouds
  • Overcast at 1,800' AGL
Temperature Dewpoint
12°C / 54°F 10°C / 50°F
Humidity Altimeter Pressure
88% 29.9" Hg 1012.4 hPa